Time;durP1;ratioP1;P1;durP2;ratioP2;P2;SDS_P1;SDS_P2;PMS_P1;PMS_P2;Temp;Humidity;BMP_temperature;BMP_pressure;BME280_temperature;BME280_humidity;BME280_pressure;Samples;Min_cycle;Max_cycle;Signal;HPM_P1;HPM_P2
2021/04/11 00:00:35;;;;;;;12.98;8.08;;;;;;;19.79;22.48;100402.92;1761204;80;21270;-15
2021/04/11 00:03:06;;;;;;;9.95;7.72;;;;;;;19.79;22.33;100412.27;1746870;79;21180;-15
2021/04/11 00:05:37;;;;;;;11.22;7.80;;;;;;;19.77;22.33;100407.47;1768573;79;21221;-15
2021/04/11 00:08:06;;;;;;;10.15;7.60;;;;;;;19.74;22.42;100411.16;1725684;79;21220;-15
2021/04/11 00:10:37;;;;;;;9.85;7.40;;;;;;;19.74;22.40;100412.98;1766458;79;21201;-15
2021/04/11 00:13:08;;;;;;;10.30;7.42;;;;;;;19.73;22.36;100421.94;1731953;79;21224;-15
2021/04/11 00:15:35;;;;;;;12.65;7.28;;;;;;;19.72;22.19;100422.87;1765077;79;21137;-16
2021/04/11 00:18:04;;;;;;;11.00;6.97;;;;;;;19.70;22.15;100422.95;1739250;79;21208;-15
2021/04/11 00:20:32;;;;;;;11.03;7.03;;;;;;;19.68;22.33;100423.05;1753438;79;21193;-15
2021/04/11 00:22:59;;;;;;;9.65;7.12;;;;;;;19.65;22.21;100425.91;1755089;79;21198;-14
2021/04/11 00:25:32;;;;;;;12.43;7.10;;;;;;;19.63;22.34;100431.80;1699370;82;21230;-14
2021/04/11 00:27:59;;;;;;;9.98;6.95;;;;;;;19.62;22.36;100428.76;1757083;79;21181;-14
2021/04/11 00:30:28;;;;;;;10.55;7.10;;;;;;;19.63;22.60;100425.61;1692393;82;21210;-15
2021/04/11 00:32:58;;;;;;;11.50;7.58;;;;;;;19.63;22.39;100426.45;1787532;79;21169;-16
2021/04/11 00:35:26;;;;;;;8.05;6.72;;;;;;;19.62;22.29;100427.42;1689502;83;21655;-15
2021/04/11 00:37:53;;;;;;;10.53;7.20;;;;;;;19.61;22.22;100420.35;1744595;79;21280;-14
2021/04/11 00:40:31;;;;;;;12.55;6.90;;;;;;;19.58;22.15;100424.52;1793488;79;21154;-15
2021/04/11 00:43:05;;;;;;;10.50;7.00;;;;;;;19.57;21.90;100425.95;1750983;79;21150;-16
2021/04/11 00:46:12;;;;;;;11.40;8.03;;;;;;;19.53;21.96;100428.42;1740904;80;21263;-14
2021/04/11 00:48:42;;;;;;;8.90;6.60;;;;;;;19.52;21.85;100431.58;1733371;82;21926;-14
2021/04/11 00:51:14;;;;;;;8.95;7.20;;;;;;;19.50;21.85;100432.11;1737375;80;21185;-15
2021/04/11 00:53:43;;;;;;;10.25;7.08;;;;;;;19.48;21.80;100433.56;1759483;79;21173;-15
2021/04/11 00:56:13;;;;;;;11.03;6.90;;;;;;;19.46;21.75;100433.25;1733510;80;21208;-15
2021/04/11 00:58:41;;;;;;;8.68;6.35;;;;;;;19.44;21.73;100429.33;1756871;80;21759;-15
2021/04/11 01:01:08;;;;;;;11.73;6.58;;;;;;;19.41;21.81;100430.84;1753373;79;21614;-15
2021/04/11 01:03:38;;;;;;;12.85;6.87;;;;;;;19.39;21.90;100430.06;1761942;79;21193;-14
2021/04/11 01:06:09;;;;;;;9.23;6.85;;;;;;;19.38;21.95;100432.82;1744174;80;21157;-15
2021/04/11 01:08:37;;;;;;;10.13;7.03;;;;;;;19.37;21.87;100429.78;1763074;79;21532;-14
2021/04/11 01:11:16;;;;;;;10.18;6.67;;;;;;;19.35;21.97;100436.54;1751469;80;21213;-15
2021/04/11 01:13:51;;;;;;;8.83;6.47;;;;;;;19.35;22.16;100424.98;1751256;79;21182;-16
2021/04/11 01:16:19;;;;;;;13.18;7.35;;;;;;;19.34;21.99;100436.63;1758699;79;21225;-15
2021/04/11 01:18:47;;;;;;;9.70;6.60;;;;;;;19.33;21.95;100430.89;1751006;79;21176;-14
2021/04/11 01:21:47;;;;;;;8.05;6.20;;;;;;;19.30;21.71;100437.27;1774370;79;21203;-15
2021/04/11 01:24:20;;;;;;;9.58;7.08;;;;;;;19.28;21.73;100440.48;1736075;80;21207;-16
2021/04/11 01:26:52;;;;;;;11.43;7.50;;;;;;;19.24;21.66;100441.61;1778955;80;21196;-16
2021/04/11 01:29:20;;;;;;;10.60;6.95;;;;;;;19.19;21.76;100435.19;1752563;80;21192;-16
2021/04/11 01:31:48;;;;;;;10.00;6.78;;;;;;;19.17;21.74;100434.91;1751911;80;21181;-16
2021/04/11 01:34:18;;;;;;;12.75;7.15;;;;;;;19.13;21.69;100435.52;1779562;80;21223;-16
2021/04/11 01:36:49;;;;;;;17.17;7.58;;;;;;;19.10;21.78;100432.56;1776812;80;21200;-15
2021/04/11 01:39:25;;;;;;;12.85;7.47;;;;;;;19.08;21.85;100437.58;1722024;81;21181;-16
2021/04/11 01:41:56;;;;;;;10.32;7.22;;;;;;;19.06;21.77;100439.48;1770897;79;21160;-15
2021/04/11 01:44:28;;;;;;;13.70;7.65;;;;;;;19.04;21.80;100430.71;1771673;80;21589;-16
2021/04/11 01:46:57;;;;;;;11.28;7.60;;;;;;;19.02;21.77;100435.28;1744176;80;21634;-16
2021/04/11 01:49:26;;;;;;;13.35;7.90;;;;;;;18.99;21.72;100428.77;1750748;80;21604;-15
2021/04/11 01:52:16;;;;;;;13.40;8.28;;;;;;;18.99;21.72;100434.11;1748954;80;21639;-16
2021/04/11 01:54:44;;;;;;;14.53;9.18;;;;;;;18.98;21.72;100440.37;1773262;80;21192;-16
2021/04/11 01:57:25;;;;;;;12.82;9.13;;;;;;;18.96;21.63;100436.94;1781075;80;21189;-16
2021/04/11 02:00:17;;;;;;;14.15;8.15;;;;;;;18.93;21.61;100438.83;1757153;79;21196;-16
2021/04/11 02:02:49;;;;;;;14.30;8.95;;;;;;;18.90;21.71;100442.14;1780755;80;21243;-17
2021/04/11 02:05:20;;;;;;;15.05;8.48;;;;;;;18.85;21.74;100449.05;1751776;80;21205;-16
2021/04/11 02:07:53;;;;;;;13.90;8.23;;;;;;;18.81;21.70;100446.59;1774785;80;21192;-17
2021/04/11 02:10:29;;;;;;;11.38;8.43;;;;;;;18.79;21.71;100446.67;1762395;80;21224;-15
2021/04/11 02:13:08;;;;;;;16.87;8.10;;;;;;;18.76;21.77;100449.50;1760817;80;23012;-17
2021/04/11 02:15:39;;;;;;;11.33;8.23;;;;;;;18.74;21.87;100454.06;1750193;80;21197;-15
2021/04/11 02:18:11;;;;;;;14.10;8.25;;;;;;;18.71;21.89;100450.22;1726351;80;32753;-15
2021/04/11 02:20:39;;;;;;;13.93;8.60;;;;;;;18.70;22.02;100456.03;1746462;81;21616;-15
2021/04/11 02:23:08;;;;;;;12.65;8.30;;;;;;;18.69;22.05;100462.33;1682096;82;21253;-16
2021/04/11 02:25:45;;;;;;;13.28;8.48;;;;;;;18.69;22.08;100461.45;1730885;80;21208;-17
2021/04/11 02:28:14;;;;;;;14.90;8.13;;;;;;;18.67;22.07;100458.86;1729815;80;21662;-16
2021/04/11 02:30:46;;;;;;;12.10;8.33;;;;;;;18.67;22.12;100462.01;1761165;80;21656;-15
2021/04/11 02:33:16;;;;;;;12.93;8.28;;;;;;;18.66;22.12;100461.60;1769830;79;21665;-15
2021/04/11 02:35:43;;;;;;;13.95;9.30;;;;;;;18.65;22.29;100468.75;1752826;79;21803;-15
2021/04/11 02:38:12;;;;;;;14.98;9.00;;;;;;;18.64;22.19;100469.68;1745071;81;21212;-15
2021/04/11 02:40:42;;;;;;;14.60;9.03;;;;;;;18.62;22.16;100472.91;1722495;80;21201;-16
2021/04/11 02:43:12;;;;;;;11.48;8.53;;;;;;;18.60;22.35;100475.27;1760729;79;21217;-15
2021/04/11 02:45:43;;;;;;;15.88;9.13;;;;;;;18.57;22.42;100474.47;1772344;79;21665;-16
2021/04/11 02:48:13;;;;;;;13.83;8.80;;;;;;;18.57;22.56;100472.28;1737138;82;21212;-15
2021/04/11 02:50:47;;;;;;;20.27;9.18;;;;;;;18.57;22.61;100478.47;1745870;79;21193;-14
2021/04/11 02:53:20;;;;;;;17.92;9.20;;;;;;;18.57;22.54;100479.80;1723117;80;21256;-14
2021/04/11 02:55:49;;;;;;;16.07;8.85;;;;;;;18.56;22.47;100483.42;1678258;79;21160;-14
2021/04/11 02:58:19;;;;;;;16.20;9.08;;;;;;;18.54;22.40;100483.98;1720604;81;21603;-14
2021/04/11 03:01:00;;;;;;;15.50;8.68;;;;;;;18.51;22.30;100484.63;1742251;80;21160;-14
2021/04/11 03:03:28;;;;;;;17.57;9.40;;;;;;;18.47;22.21;100489.22;1772976;79;21210;-15
2021/04/11 03:05:59;;;;;;;13.58;8.90;;;;;;;18.42;22.21;100493.93;1747075;80;21683;-15
2021/04/11 03:08:33;;;;;;;14.33;9.10;;;;;;;18.36;22.34;100488.94;1745646;79;21220;-15
2021/04/11 03:11:06;;;;;;;20.57;8.98;;;;;;;18.29;22.46;100489.72;1748078;80;21665;-13
2021/04/11 03:13:35;;;;;;;17.10;9.65;;;;;;;18.26;22.49;100498.34;1769291;79;21201;-15
2021/04/11 03:16:06;;;;;;;13.22;9.20;;;;;;;18.22;22.52;100495.42;1756754;79;21196;-15
2021/04/11 03:18:37;;;;;;;15.78;9.15;;;;;;;18.18;22.46;100496.05;1743350;79;21990;-15
2021/04/11 03:21:06;;;;;;;16.00;8.70;;;;;;;18.14;22.65;100505.13;1745364;79;21222;-15
2021/04/11 03:23:34;;;;;;;14.13;8.78;;;;;;;18.11;22.63;100511.48;1763548;79;21236;-15
2021/04/11 03:26:14;;;;;;;18.00;9.03;;;;;;;18.10;22.67;100514.22;1751664;79;21640;-15
2021/04/11 03:28:47;;;;;;;20.37;9.50;;;;;;;18.08;22.64;100511.63;1762969;79;21206;-14
2021/04/11 03:31:21;;;;;;;15.98;8.10;;;;;;;18.08;22.62;100518.29;1725401;79;21200;-14
2021/04/11 03:33:51;;;;;;;15.08;7.92;;;;;;;18.10;23.67;100516.88;1754796;79;21193;-15
2021/04/11 03:36:19;;;;;;;10.32;7.25;;;;;;;18.19;24.58;100521.28;1741933;80;21687;-14
2021/04/11 03:38:49;;;;;;;15.90;7.78;;;;;;;18.33;25.15;100527.72;1754625;79;21822;-15
2021/04/11 03:41:17;;;;;;;11.08;7.37;;;;;;;18.51;25.28;100530.78;1685203;80;21255;-16
2021/04/11 03:43:48;;;;;;;10.00;6.78;;;;;;;18.69;25.20;100538.75;1742578;79;21164;-16
2021/04/11 03:46:44;;;;;;;13.20;7.53;;;;;;;18.91;25.04;100540.73;1753586;79;21224;-15
2021/04/11 03:49:36;;;;;;;16.48;7.92;;;;;;;19.14;24.78;100538.63;1753739;79;21224;-15
2021/04/11 03:52:24;;;;;;;9.90;7.28;;;;;;;19.41;24.43;100532.25;1749331;79;21217;-14
2021/04/11 03:55:17;;;;;;;11.20;7.42;;;;;;;19.79;24.02;100539.11;1814636;77;22812;-16
2021/04/11 03:57:50;;;;;;;11.12;7.03;;;;;;;19.98;23.76;100544.25;1754357;78;21209;-15
2021/04/11 04:00:32;;;;;;;9.88;6.90;;;;;;;20.22;23.50;100549.97;1798498;78;21305;-13
2021/04/11 04:03:04;;;;;;;9.73;6.90;;;;;;;20.45;23.26;100553.98;1756105;78;21137;-15
2021/04/11 04:05:33;;;;;;;9.60;6.70;;;;;;;20.68;23.01;100556.66;1795906;78;21186;-16
2021/04/11 04:08:04;;;;;;;13.72;7.22;;;;;;;20.91;22.78;100561.07;1799748;78;21140;-15
2021/04/11 04:10:46;;;;;;;9.70;6.67;;;;;;;21.14;22.59;100561.00;1773384;79;21109;-16
2021/04/11 04:13:42;;;;;;;11.18;7.15;;;;;;;21.37;22.38;100559.56;1764272;80;21398;-15
2021/04/11 04:16:25;;;;;;;11.00;7.20;;;;;;;21.63;22.15;100558.41;1733425;81;21492;-16
2021/04/11 04:19:20;;;;;;;15.25;7.50;;;;;;;21.89;21.90;100561.60;1729457;81;21246;-15
2021/04/11 04:22:12;;;;;;;14.43;7.87;;;;;;;22.15;21.67;100563.03;1715996;81;21251;-13
2021/04/11 04:24:52;;;;;;;11.35;7.03;;;;;;;22.43;21.49;100566.11;1732361;80;21225;-14
2021/04/11 04:28:01;;;;;;;14.60;8.25;;;;;;;22.68;21.28;100568.92;1763365;80;21233;-17
2021/04/11 04:30:49;;;;;;;132.07;65.32;;;;;;;22.90;20.93;100575.89;1768089;80;21188;-16
2021/04/11 04:33:32;;;;;;;39.70;17.12;;;;;;;23.04;19.69;100579.44;1756434;80;21564;-16
2021/04/11 04:36:25;;;;;;;17.80;10.53;;;;;;;22.98;19.93;100582.05;1638007;80;21229;-16
2021/04/11 04:39:11;;;;;;;18.12;10.40;;;;;;;23.02;20.02;100584.91;1742753;81;21229;-15
2021/04/11 04:41:46;;;;;;;;;;;;;;;23.09;19.77;100585.38;1690423;82;22642;-15
2021/04/11 04:44:36;;;;;;;14.15;8.70;;;;;;;23.10;19.60;100588.41;1734467;81;20614;-14
2021/04/11 04:47:18;;;;;;;16.52;8.98;;;;;;;23.04;19.59;100584.81;1759684;80;21201;-14
2021/04/11 04:50:08;;;;;;;16.62;7.95;;;;;;;23.00;19.60;100586.36;1741784;81;22308;-13
2021/04/11 04:52:38;;;;;;;14.43;8.40;;;;;;;22.92;19.52;100581.16;1731559;80;21175;-14
2021/04/11 04:55:23;;;;;;;11.73;7.85;;;;;;;22.81;19.56;100585.91;1713223;82;21194;-14
2021/04/11 04:58:08;;;;;;;14.05;7.92;;;;;;;22.70;19.57;100592.02;1698872;81;21195;-15
2021/04/11 05:00:43;;;;;;;13.43;8.23;;;;;;;22.59;19.49;100586.05;1701921;81;21169;-16
2021/04/11 05:03:22;;;;;;;12.43;8.30;;;;;;;22.48;19.39;100585.91;1728044;81;21209;-15
2021/04/11 05:06:09;;;;;;;11.38;8.05;;;;;;;22.36;20.03;100584.03;1742271;81;21211;-16
2021/04/11 05:08:50;;;;;;;11.53;7.65;;;;;;;22.36;20.67;100589.40;1729897;81;21593;-15
2021/04/11 05:11:45;;;;;;;16.32;7.80;;;;;;;22.41;21.04;100592.66;1744488;81;21182;-15
2021/04/11 05:14:18;;;;;;;10.95;7.58;;;;;;;22.47;21.34;100598.08;1744101;81;21171;-14
2021/04/11 05:16:57;;;;;;;9.33;6.90;;;;;;;22.51;21.58;100595.56;1705667;82;21161;-14
2021/04/11 05:19:44;;;;;;;10.75;6.70;;;;;;;22.56;21.76;100600.13;1722752;82;21177;-15
2021/04/11 05:22:36;;;;;;;10.13;6.62;;;;;;;22.61;21.87;100604.23;1719613;81;21604;-15
2021/04/11 05:25:32;;;;;;;12.15;6.55;;;;;;;22.67;22.03;100606.98;1793199;79;21168;-14
2021/04/11 05:28:14;;;;;;;12.03;6.90;;;;;;;22.73;22.08;100608.38;1788668;79;27826;-16
2021/04/11 05:30:48;;;;;;;8.43;6.55;;;;;;;22.79;22.02;100609.30;1764426;79;21430;-16
2021/04/11 05:33:20;;;;;;;17.65;7.20;;;;;;;22.82;22.24;100615.31;1738380;79;21177;-15
2021/04/11 05:35:53;;;;;;;12.98;6.60;;;;;;;22.86;22.26;100611.09;1775093;79;21156;-16
2021/04/11 05:38:51;;;;;;;11.88;6.65;;;;;;;22.88;22.25;100619.42;1792427;79;22019;-16
2021/04/11 05:41:26;;;;;;;12.28;7.10;;;;;;;22.90;22.10;100616.14;1792617;79;21213;-15
2021/04/11 05:44:05;;;;;;;13.68;6.62;;;;;;;22.91;22.03;100615.16;1765157;79;21154;-14
2021/04/11 05:46:52;;;;;;;10.35;6.95;;;;;;;22.92;22.01;100611.52;1742126;79;21154;-14
2021/04/11 05:49:37;;;;;;;10.50;7.12;;;;;;;22.95;21.92;100612.66;1774553;79;22569;-16
2021/04/11 05:52:10;;;;;;;10.32;6.87;;;;;;;22.96;21.94;100609.02;1766363;79;21652;-16
2021/04/11 05:54:43;;;;;;;9.90;6.92;;;;;;;22.98;21.94;100612.45;1792799;79;21189;-16
2021/04/11 05:57:15;;;;;;;12.35;7.80;;;;;;;22.98;21.97;100616.48;1795183;78;21204;-17
2021/04/11 06:00:03;;;;;;;11.20;7.35;;;;;;;22.99;21.79;100616.84;1811013;79;21136;-15
2021/04/11 06:02:44;;;;;;;13.87;8.13;;;;;;;23.00;21.60;100624.43;1805048;76;28067;-17
2021/04/11 06:05:50;;;;;;;12.93;7.00;;;;;;;22.96;21.22;100625.59;1773015;79;21200;-16
2021/04/11 06:08:32;;;;;;;11.12;8.48;;;;;;;22.95;21.19;100623.89;1779950;79;21192;-16
2021/04/11 06:11:04;;;;;;;16.15;7.58;;;;;;;22.88;21.20;100630.16;1752605;79;21195;-17
2021/04/11 06:14:15;;;;;;;16.90;7.35;;;;;;;22.81;21.10;100630.17;1775977;79;21583;-17
2021/04/11 06:16:48;;;;;;;13.32;6.70;;;;;;;22.71;21.04;100622.38;1742307;80;21132;-16
2021/04/11 06:19:18;;;;;;;12.37;7.30;;;;;;;22.63;21.41;100624.25;1807093;77;21641;-17
2021/04/11 06:22:34;;;;;;;14.47;6.92;;;;;;;22.56;21.42;100617.10;1786999;77;22231;-15
2021/04/11 06:25:32;;;;;;;12.03;7.50;;;;;;;22.51;21.25;100623.72;1794059;79;21204;-16
2021/04/11 06:28:32;;;;;;;13.65;7.22;;;;;;;22.42;21.33;100626.55;1786084;79;21168;-17
2021/04/11 06:31:03;;;;;;;10.70;6.78;;;;;;;22.33;21.27;100627.17;1787354;78;21136;-16
2021/04/11 06:33:35;;;;;;;11.90;6.87;;;;;;;22.26;21.03;100623.50;1793119;77;21231;-17
2021/04/11 06:36:23;;;;;;;10.32;6.42;;;;;;;22.22;21.41;100628.67;1754768;79;21224;-17
2021/04/11 06:39:06;;;;;;;11.78;6.83;;;;;;;22.22;21.35;100626.48;1813888;76;22712;-16
2021/04/11 06:42:16;;;;;;;10.68;6.40;;;;;;;22.17;21.22;100632.14;1788940;78;21227;-17
2021/04/11 06:45:13;;;;;;;10.82;6.40;;;;;;;22.14;21.52;100630.14;1789308;77;21208;-16
2021/04/11 06:48:23;;;;;;;13.95;7.12;;;;;;;22.09;21.28;100627.78;1727878;81;21707;-16
2021/04/11 06:51:25;;;;;;;12.10;6.80;;;;;;;22.03;21.35;100634.38;1716864;82;21180;-17
2021/04/11 06:54:11;;;;;;;14.70;7.85;;;;;;;21.96;21.51;100638.42;1718643;80;21505;-17
2021/04/11 06:57:11;;;;;;;;;;;;;;;21.92;21.78;100646.75;1688979;82;21628;-16
2021/04/11 07:00:27;;;;;;;12.55;7.08;;;;;;;21.88;22.20;100642.08;1713202;82;21823;-15
2021/04/11 07:03:43;;;;;;;16.05;6.92;;;;;;;21.84;22.66;100645.44;1716102;80;21658;-15
2021/04/11 07:06:46;;;;;;;8.78;6.35;;;;;;;21.86;23.28;100649.36;1742245;79;21187;-13
2021/04/11 07:09:33;;;;;;;10.85;6.62;;;;;;;21.89;23.83;100654.03;1721465;82;21137;-17
2021/04/11 07:12:40;;;;;;;9.90;6.45;;;;;;;21.99;24.60;100648.95;1713086;80;21216;-17
2021/04/11 07:15:26;;;;;;;15.30;6.47;;;;;;;22.11;24.81;100649.09;1752376;79;21635;-16
2021/04/11 07:18:16;;;;;;;595.88;481.73;;;;;;;22.23;24.84;100653.19;1762132;79;21803;-17
2021/04/11 07:21:26;;;;;;;186.20;131.70;;;;;;;22.34;24.05;100657.02;1729940;80;21228;-15
2021/04/11 07:24:30;;;;;;;70.20;46.28;;;;;;;22.38;23.05;100651.85;1689285;82;21683;-16
2021/04/11 07:27:29;;;;;;;62.00;41.37;;;;;;;22.37;22.50;100655.48;1755845;81;21121;-15
2021/04/11 07:30:22;;;;;;;35.13;26.90;;;;;;;22.35;22.33;100656.92;1720749;80;21192;-17
2021/04/11 07:33:00;;;;;;;34.27;24.67;;;;;;;22.32;22.32;100654.92;1705422;80;21805;-16
2021/04/11 07:36:05;;;;;;;29.90;19.85;;;;;;;22.29;22.46;100658.66;1704330;80;21157;-17
2021/04/11 07:38:53;;;;;;;33.47;21.00;;;;;;;22.26;22.97;100659.70;1749442;80;22229;-17
2021/04/11 07:41:55;;;;;;;36.10;20.37;;;;;;;22.24;23.24;100653.59;1713674;80;21194;-16
2021/04/11 07:45:00;;;;;;;28.32;19.07;;;;;;;22.25;25.12;100657.97;1725187;80;21191;-16
2021/04/11 07:48:22;;;;;;;34.75;16.80;;;;;;;22.30;25.85;100655.02;1728259;81;21148;-17
2021/04/11 07:51:16;;;;;;;20.85;13.95;;;;;;;22.40;26.03;100662.84;1729676;80;21176;-16
2021/04/11 07:54:08;;;;;;;24.00;13.28;;;;;;;22.53;26.07;100663.39;1715160;81;21269;-15
2021/04/11 07:57:06;;;;;;;23.52;12.53;;;;;;;22.59;25.71;100659.82;1709459;81;21192;-16
2021/04/11 08:00:27;;;;;;;17.15;10.53;;;;;;;22.67;25.85;100654.41;1744010;80;21215;-15
2021/04/11 08:03:18;;;;;;;17.70;10.13;;;;;;;22.76;25.83;100657.34;1730332;80;21242;-14
2021/04/11 08:06:29;;;;;;;15.18;9.18;;;;;;;22.86;25.59;100659.39;1745484;81;21208;-15
2021/04/11 08:09:18;;;;;;;23.05;8.90;;;;;;;22.92;25.41;100654.47;1730140;80;21204;-20
2021/04/11 08:12:29;;;;;;;12.45;7.72;;;;;;;22.99;25.30;100653.07;1736101;80;21195;-17
2021/04/11 08:15:33;;;;;;;13.32;7.62;;;;;;;23.07;25.24;100661.13;1728994;81;21247;-15
2021/04/11 08:18:52;;;;;;;15.32;7.35;;;;;;;23.16;24.83;100651.94;1832428;77;22812;-15
2021/04/11 08:21:32;;;;;;;11.60;6.50;;;;;;;23.17;24.84;100658.19;1804592;78;21627;-16
2021/04/11 08:24:41;;;;;;;9.90;6.53;;;;;;;23.23;24.72;100655.05;1803821;79;21201;-17
2021/04/11 08:27:29;;;;;;;7.83;5.65;;;;;;;23.28;24.50;100655.59;1796010;79;21775;-15
2021/04/11 08:30:22;;;;;;;11.70;5.78;;;;;;;23.31;24.33;100654.04;1812150;78;21145;-15
2021/04/11 08:32:58;;;;;;;13.22;6.35;;;;;;;23.35;24.30;100645.28;1749796;80;21184;-16
2021/04/11 08:36:02;;;;;;;11.30;6.00;;;;;;;23.37;23.24;100642.88;1774494;79;21600;-16
2021/04/11 08:39:09;;;;;;;8.13;5.58;;;;;;;23.36;23.55;100642.98;1807027;78;22336;-14
2021/04/11 08:42:11;;;;;;;9.03;5.47;;;;;;;23.34;23.54;100641.75;1799338;79;21038;-15
2021/04/11 08:45:11;;;;;;;8.28;5.20;;;;;;;23.34;23.00;100639.06;1784672;78;21418;-16
2021/04/11 08:48:24;;;;;;;7.65;5.03;;;;;;;23.32;23.55;100637.47;1758623;78;21180;-16
2021/04/11 08:51:22;;;;;;;9.58;5.10;;;;;;;23.36;23.62;100640.30;1798430;79;21188;-16
2021/04/11 08:54:17;;;;;;;7.10;4.70;;;;;;;23.42;23.52;100634.97;1770403;78;21141;-16
2021/04/11 08:57:02;;;;;;;8.08;4.78;;;;;;;23.47;23.75;100635.50;1780961;79;21192;-15
2021/04/11 08:59:59;;;;;;;6.12;4.17;;;;;;;23.50;23.06;100629.91;1743527;80;21130;-15
2021/04/11 09:02:53;;;;;;;4.58;4.03;;;;;;;23.51;23.41;100626.27;1699773;81;21225;-15
2021/04/11 09:06:05;;;;;;;5.67;4.28;;;;;;;23.56;23.38;100625.45;1748476;80;26723;-15
2021/04/11 09:08:54;;;;;;;9.35;4.33;;;;;;;23.57;23.29;100621.81;1728026;80;21391;-15
2021/04/11 09:11:51;;;;;;;5.60;4.03;;;;;;;23.61;22.77;100617.08;1753381;80;21259;-15
2021/04/11 09:14:56;;;;;;;5.17;3.85;;;;;;;23.62;23.26;100623.69;1725585;81;21203;-15
2021/04/11 09:18:02;;;;;;;5.67;4.50;;;;;;;23.65;23.38;100611.84;1717840;81;21604;-16
2021/04/11 09:20:48;;;;;;;6.30;3.83;;;;;;;23.68;22.65;100612.48;1711873;82;21241;-15
2021/04/11 09:23:34;;;;;;;;;;;;;;;23.68;22.27;100600.88;1766861;79;21161;-16
2021/04/11 09:26:19;;;;;;;5.90;4.35;;;;;;;23.65;22.33;100601.95;1783700;78;20306;-16
2021/04/11 09:28:53;;;;;;;7.17;3.72;;;;;;;23.64;21.50;100600.25;1734738;80;21188;-14
2021/04/11 09:31:36;;;;;;;5.78;3.85;;;;;;;23.58;21.86;100597.99;1762020;79;21180;-16
2021/04/11 09:34:27;;;;;;;5.25;3.87;;;;;;;23.58;22.48;100597.99;1780424;79;21213;-14
2021/04/11 09:37:24;;;;;;;4.03;3.42;;;;;;;23.61;22.57;100595.09;1780866;79;21679;-15
2021/04/11 09:40:21;;;;;;;5.70;3.67;;;;;;;23.66;22.62;100590.24;1800202;79;21232;-15
2021/04/11 09:43:19;;;;;;;4.67;3.85;;;;;;;23.68;22.48;100584.76;1763293;79;21208;-15
2021/04/11 09:46:09;;;;;;;7.85;3.92;;;;;;;23.74;22.60;100593.23;1798706;78;21176;-16
2021/04/11 09:49:20;;;;;;;5.35;3.52;;;;;;;23.78;22.75;100583.12;1747303;81;21218;-16
2021/04/11 09:51:59;;;;;;;5.33;3.40;;;;;;;23.83;22.84;100581.48;1792691;79;21567;-15
2021/04/11 09:54:45;;;;;;;5.37;3.25;;;;;;;23.87;22.80;100570.86;1787919;79;21172;-14
2021/04/11 09:57:46;;;;;;;12.93;8.80;;;;;;;23.90;22.82;100573.33;1758545;79;21172;-15
2021/04/11 10:00:31;;;;;;;27.25;16.62;;;;;;;23.95;21.63;100580.56;1716437;83;21185;-16
2021/04/11 10:03:22;;;;;;;33.20;20.05;;;;;;;23.90;20.67;100573.33;1742818;81;22211;-15
2021/04/11 10:06:14;;;;;;;19.62;11.88;;;;;;;23.83;20.60;100567.55;1781902;79;21224;-14
2021/04/11 10:09:02;;;;;;;13.28;9.73;;;;;;;23.80;21.65;100567.73;1784962;79;21196;-15
2021/04/11 10:11:48;;;;;;;13.45;8.05;;;;;;;23.82;21.42;100570.34;1786317;79;21173;-16
2021/04/11 10:14:41;;;;;;;14.73;8.93;;;;;;;23.82;21.15;100567.66;1781173;79;21185;-16
2021/04/11 10:17:36;;;;;;;10.93;8.30;;;;;;;23.81;21.73;100574.84;1753981;79;21201;-16
2021/04/11 10:20:29;;;;;;;11.50;6.50;;;;;;;23.84;21.85;100577.34;1786771;78;21207;-16
2021/04/11 10:23:18;;;;;;;9.70;6.58;;;;;;;23.84;20.51;100579.14;1782811;79;21228;-17
2021/04/11 10:26:07;;;;;;;9.63;6.60;;;;;;;23.79;20.28;100567.84;1777585;79;21203;-16
2021/04/11 10:28:57;;;;;;;15.90;9.73;;;;;;;23.78;21.43;100572.86;1785590;78;21197;-16
2021/04/11 10:31:53;;;;;;;14.05;9.40;;;;;;;23.79;20.55;100573.22;1777382;79;22043;-15
2021/04/11 10:34:44;;;;;;;8.43;7.15;;;;;;;23.77;19.78;100571.13;1773451;78;21227;-16
2021/04/11 10:37:40;;;;;;;15.63;8.35;;;;;;;23.69;19.87;100563.16;1703370;82;21225;-14
2021/04/11 10:40:33;;;;;;;10.60;7.72;;;;;;;23.66;19.77;100574.12;1765933;79;21561;-16
2021/04/11 10:43:52;;;;;;;13.53;6.45;;;;;;;23.59;19.68;100567.48;1788154;79;21133;-16
2021/04/11 10:46:23;;;;;;;8.13;5.87;;;;;;;23.56;19.21;100570.39;1750506;79;21145;-16
2021/04/11 10:49:38;;;;;;;8.63;6.25;;;;;;;23.51;19.45;100567.17;1731714;82;21188;-15
2021/04/11 10:52:29;;;;;;;8.23;5.53;;;;;;;23.48;19.73;100558.84;1797347;79;21114;-16
2021/04/11 10:55:16;;;;;;;7.60;5.90;;;;;;;23.50;19.84;100557.39;1778553;79;21164;-15
2021/04/11 10:58:18;;;;;;;7.60;6.00;;;;;;;23.51;20.67;100556.44;1754491;81;21176;-15
2021/04/11 11:00:59;;;;;;;7.10;5.10;;;;;;;23.56;20.83;100560.98;1740837;79;21153;-16
2021/04/11 11:03:42;;;;;;;6.85;5.28;;;;;;;23.61;20.96;100548.08;1756061;79;21303;-16
2021/04/11 11:06:24;;;;;;;9.45;4.97;;;;;;;23.66;20.73;100555.31;1794684;79;21835;-16
2021/04/11 11:09:15;;;;;;;7.92;5.40;;;;;;;23.69;20.71;100547.03;1765803;79;22329;-15
2021/04/11 11:12:19;;;;;;;11.03;7.47;;;;;;;23.74;20.85;100544.87;1771486;79;21131;-16
2021/04/11 11:15:16;;;;;;;8.15;4.75;;;;;;;23.79;20.71;100540.97;1769716;79;21525;-15
2021/04/11 11:18:25;;;;;;;6.25;5.40;;;;;;;23.71;19.26;100539.71;1766711;79;21162;-15
2021/04/11 11:21:32;;;;;;;13.40;9.13;;;;;;;23.62;19.00;100534.15;1701559;82;21260;-15
2021/04/11 11:24:26;;;;;;;6.50;5.62;;;;;;;23.54;18.38;100534.73;1731374;81;21228;-15
2021/04/11 11:27:22;;;;;;;7.37;4.50;;;;;;;23.45;18.38;100532.69;1695688;81;21257;-16
2021/04/11 11:30:17;;;;;;;7.95;4.78;;;;;;;23.42;18.07;100536.94;1645230;82;21239;-15
2021/04/11 11:33:11;;;;;;;6.10;4.30;;;;;;;23.36;18.31;100527.02;1724299;82;22329;-15
2021/04/11 11:36:17;;;;;;;16.40;9.15;;;;;;;23.36;18.84;100527.02;1711405;82;21252;-16
2021/04/11 11:38:53;;;;;;;8.93;5.42;;;;;;;23.42;19.68;100516.80;1712698;82;21261;-16
2021/04/11 11:41:44;;;;;;;6.45;4.58;;;;;;;23.46;19.37;100523.19;1730092;81;21660;-17
2021/04/11 11:44:21;;;;;;;7.37;4.40;;;;;;;23.49;20.04;100516.75;1711465;81;21208;-16
2021/04/11 11:47:15;;;;;;;6.03;4.37;;;;;;;23.56;20.44;100507.27;1745360;80;21189;-15
2021/04/11 11:50:09;;;;;;;6.75;4.47;;;;;;;23.62;20.45;100511.31;1685137;80;21192;-15
2021/04/11 11:52:42;;;;;;;5.70;4.20;;;;;;;23.68;20.45;100502.81;1776784;78;21176;-16
2021/04/11 11:55:31;;;;;;;7.00;4.37;;;;;;;23.75;19.14;100504.06;1708187;81;21205;-16
2021/04/11 11:58:19;;;;;;;7.05;4.20;;;;;;;23.72;18.74;100497.11;1786894;78;21612;-15
2021/04/11 12:01:00;;;;;;;10.18;3.95;;;;;;;23.69;18.51;100493.30;1763208;78;21184;-17
2021/04/11 12:03:36;;;;;;;5.72;4.22;;;;;;;23.65;17.86;100493.63;1758328;78;21162;-15
2021/04/11 12:06:27;;;;;;;6.15;4.10;;;;;;;23.60;17.89;100499.34;1756523;78;21227;-14
2021/04/11 12:09:24;;;;;;;8.53;4.37;;;;;;;23.59;19.26;100486.89;1774019;78;21181;-14
2021/04/11 12:12:06;;;;;;;7.83;5.45;;;;;;;23.64;18.97;100487.91;1735339;80;21216;-15
2021/04/11 12:14:55;;;;;;;6.40;4.62;;;;;;;23.64;17.92;100483.88;1773906;78;21220;-15
2021/04/11 12:17:42;;;;;;;6.12;4.08;;;;;;;23.60;17.87;100483.22;1716901;82;21184;-14
2021/04/11 12:20:16;;;;;;;4.80;3.80;;;;;;;23.60;18.16;100493.96;1755044;80;21711;-14
2021/04/11 12:23:06;;;;;;;6.90;3.90;;;;;;;23.62;18.93;100491.16;1791574;79;21110;-15
2021/04/11 12:25:35;;;;;;;5.60;3.90;;;;;;;23.66;19.60;100488.64;1763761;79;21614;-14
2021/04/11 12:28:25;;;;;;;6.10;3.92;;;;;;;23.71;19.73;100479.26;1726567;80;21139;-15
2021/04/11 12:30:53;;;;;;;6.97;4.00;;;;;;;23.79;19.97;100477.81;1745916;80;21189;-14
2021/04/11 12:33:36;;;;;;;7.40;4.35;;;;;;;23.86;20.34;100479.98;1717086;81;21198;-14
2021/04/11 12:36:14;;;;;;;8.28;4.42;;;;;;;23.94;20.18;100484.79;1737652;81;21675;-14
2021/04/11 12:38:46;;;;;;;6.95;3.98;;;;;;;23.98;20.08;100482.23;1733491;81;21220;-14